Time;durP1;ratioP1;P1;durP2;ratioP2;P2;SDS_P1;SDS_P2;PMS_P1;PMS_P2;Temp;Humidity;BMP_temperature;BMP_pressure;BME280_temperature;BME280_humidity;BME280_pressure;Samples;Min_cycle;Max_cycle;Signal;HPM_P1;HPM_P2
2024/01/23 00:02:57;;;;;;;3.28;2.42;;;;;;;;;;10188337;28;20044;-69
2024/01/23 00:07:49;;;;;;;2.83;2.28;;;;;;;;;;10187940;28;20056;-70
2024/01/23 00:12:40;;;;;;;3.30;2.90;;;;;;;;;;10188871;28;20048;-70
2024/01/23 00:17:32;;;;;;;3.47;2.80;;;;;;;;;;10187550;28;20040;-70
2024/01/23 00:22:24;;;;;;;4.38;3.42;;;;;;;;;;10186958;28;20420;-70
2024/01/23 00:27:16;;;;;;;4.40;2.75;;;;;;;;;;10187501;28;20032;-70
2024/01/23 00:32:08;;;;;;;3.25;3.00;;;;;;;;;;10187771;28;20048;-70
2024/01/23 00:37:02;;;;;;;5.15;4.45;;;;;;;;;;10187135;28;20050;-70
2024/01/23 00:41:54;;;;;;;7.95;5.05;;;;;;;;;;10187322;28;20068;-70
2024/01/23 00:46:46;;;;;;;19.25;11.40;;;;;;;;;;10186321;28;20130;-70
2024/01/23 00:51:38;;;;;;;14.18;9.27;;;;;;;;;;10155483;28;20811;-70
2024/01/23 00:56:30;;;;;;;12.50;10.30;;;;;;;;;;10148199;28;20051;-70
2024/01/23 01:01:22;;;;;;;11.68;9.80;;;;;;;;;;10149561;28;20479;-70
2024/01/23 01:06:14;;;;;;;11.77;10.07;;;;;;;;;;10148674;28;20426;-70
2024/01/23 01:11:06;;;;;;;12.63;10.60;;;;;;;;;;10154033;28;20064;-70
2024/01/23 01:15:58;;;;;;;17.13;12.43;;;;;;;;;;10147181;28;20044;-70
2024/01/23 01:20:50;;;;;;;19.08;16.08;;;;;;;;;;10151415;28;20051;-70
2024/01/23 01:25:44;;;;;;;9.27;7.10;;;;;;;;;;10149025;28;20049;-70
2024/01/23 01:30:37;;;;;;;9.05;5.85;;;;;;;;;;10147596;28;20051;-70
2024/01/23 01:35:29;;;;;;;9.45;6.57;;;;;;;;;;10146868;28;20551;-70
2024/01/23 01:40:21;;;;;;;8.18;6.40;;;;;;;;;;10154559;28;20041;-70
2024/01/23 01:45:13;;;;;;;6.72;5.75;;;;;;;;;;10145794;28;20094;-70
2024/01/23 01:50:05;;;;;;;6.03;5.43;;;;;;;;;;10151394;28;20039;-69
2024/01/23 01:54:59;;;;;;;8.18;5.90;;;;;;;;;;10144606;28;20048;-70
2024/01/23 01:59:51;;;;;;;4.03;3.33;;;;;;;;;;10130607;28;20052;-70
2024/01/23 02:04:45;;;;;;;5.72;4.45;;;;;;;;;;10146268;28;20120;-70
2024/01/23 02:09:37;;;;;;;3.97;2.88;;;;;;;;;;10154634;28;20044;-72
2024/01/23 02:14:29;;;;;;;3.47;3.17;;;;;;;;;;10143932;28;20032;-70
2024/01/23 02:19:21;;;;;;;4.93;3.33;;;;;;;;;;10152844;28;20033;-69
2024/01/23 02:24:13;;;;;;;2.95;2.30;;;;;;;;;;10145704;28;20056;-70
2024/01/23 02:29:05;;;;;;;3.45;2.83;;;;;;;;;;10148275;28;20123;-70
2024/01/23 02:33:57;;;;;;;5.28;3.03;;;;;;;;;;10146274;28;20083;-70
2024/01/23 02:38:49;;;;;;;5.65;3.20;;;;;;;;;;10159747;28;20478;-71
2024/01/23 02:43:41;;;;;;;4.60;2.75;;;;;;;;;;10145080;28;20098;-70
2024/01/23 02:48:33;;;;;;;3.47;3.17;;;;;;;;;;10151194;28;20130;-70
2024/01/23 02:53:25;;;;;;;2.80;2.60;;;;;;;;;;10145231;28;20071;-71
2024/01/23 02:58:18;;;;;;;4.97;2.20;;;;;;;;;;10148687;28;20044;-72
2024/01/23 03:03:10;;;;;;;3.00;2.58;;;;;;;;;;10145046;28;20047;-72
2024/01/23 03:08:02;;;;;;;3.00;2.72;;;;;;;;;;10146249;28;20036;-72
2024/01/23 03:12:54;;;;;;;8.70;3.30;;;;;;;;;;10146288;28;20095;-71
2024/01/23 03:17:46;;;;;;;3.80;3.40;;;;;;;;;;10143737;28;20063;-72
2024/01/23 03:22:38;;;;;;;5.65;2.58;;;;;;;;;;10147451;28;20059;-71
2024/01/23 03:27:30;;;;;;;2.78;2.42;;;;;;;;;;10144562;28;20412;-71
2024/01/23 03:32:21;;;;;;;3.70;2.58;;;;;;;;;;10145440;28;20052;-71
2024/01/23 03:37:15;;;;;;;4.03;2.65;;;;;;;;;;10144906;28;20132;-72
2024/01/23 03:42:07;;;;;;;3.22;2.40;;;;;;;;;;10155556;28;20071;-69
2024/01/23 03:46:59;;;;;;;6.40;4.97;;;;;;;;;;10150618;28;20053;-69
2024/01/23 03:51:51;;;;;;;7.53;5.30;;;;;;;;;;10151649;28;20044;-72
2024/01/23 03:56:43;;;;;;;11.32;7.25;;;;;;;;;;10150805;28;20040;-72
2024/01/23 04:01:35;;;;;;;12.70;7.50;;;;;;;;;;10157371;28;20052;-71
2024/01/23 04:06:27;;;;;;;9.75;6.18;;;;;;;;;;10149450;28;20055;-71
2024/01/23 04:11:19;;;;;;;6.13;5.45;;;;;;;;;;10153883;28;20509;-72
2024/01/23 04:16:12;;;;;;;10.13;5.60;;;;;;;;;;10150510;28;20044;-72
2024/01/23 04:21:05;;;;;;;11.40;7.55;;;;;;;;;;10150851;28;20163;-71
2024/01/23 04:25:58;;;;;;;11.85;6.63;;;;;;;;;;10150801;28;20044;-71
2024/01/23 04:30:52;;;;;;;9.35;7.25;;;;;;;;;;10149539;28;20121;-71
2024/01/23 04:35:44;;;;;;;7.65;6.85;;;;;;;;;;10150749;28;20098;-71
2024/01/23 04:40:36;;;;;;;13.65;7.63;;;;;;;;;;10155628;28;20125;-72
2024/01/23 04:45:28;;;;;;;9.95;7.68;;;;;;;;;;10150643;28;20084;-71
2024/01/23 04:50:20;;;;;;;12.15;8.00;;;;;;;;;;10152254;28;20443;-71
2024/01/23 04:55:12;;;;;;;9.88;6.60;;;;;;;;;;10150457;28;20037;-71
2024/01/23 05:00:05;;;;;;;12.57;10.50;;;;;;;;;;10148836;28;20049;-71
2024/01/23 05:04:57;;;;;;;10.20;8.13;;;;;;;;;;10149622;28;20084;-71
2024/01/23 05:09:49;;;;;;;12.30;8.75;;;;;;;;;;10149065;28;20095;-71
2024/01/23 05:14:41;;;;;;;12.27;8.73;;;;;;;;;;10147772;28;20056;-72
2024/01/23 05:19:33;;;;;;;8.75;7.93;;;;;;;;;;10152406;28;20089;-71
2024/01/23 05:24:27;;;;;;;24.67;17.75;;;;;;;;;;10147079;28;20100;-71
2024/01/23 05:29:19;;;;;;;166.77;124.07;;;;;;;;;;10148459;28;20090;-71
2024/01/23 05:34:11;;;;;;;15.63;12.73;;;;;;;;;;10147764;28;20094;-72
2024/01/23 05:39:04;;;;;;;13.75;11.07;;;;;;;;;;10147002;28;20044;-72
2024/01/23 05:43:57;;;;;;;16.65;12.75;;;;;;;;;;10147911;28;20454;-71
2024/01/23 05:48:49;;;;;;;14.27;11.27;;;;;;;;;;10147252;28;20098;-71
2024/01/23 05:53:41;;;;;;;23.50;15.10;;;;;;;;;;10148344;28;20051;-71
2024/01/23 05:58:33;;;;;;;16.80;13.55;;;;;;;;;;10146268;28;20090;-71
2024/01/23 06:03:25;;;;;;;22.60;13.57;;;;;;;;;;10146568;28;20036;-71
2024/01/23 06:08:17;;;;;;;24.70;18.23;;;;;;;;;;10147744;28;20068;-71
2024/01/23 06:13:08;;;;;;;13.98;10.55;;;;;;;;;;10145382;28;20205;-71
2024/01/23 06:18:00;;;;;;;14.40;12.90;;;;;;;;;;10142990;28;20116;-71
2024/01/23 06:22:52;;;;;;;16.50;13.35;;;;;;;;;;10141289;28;20041;-74
2024/01/23 06:27:44;;;;;;;31.67;26.48;;;;;;;;;;10125063;28;20048;-74
2024/01/23 06:32:40;;;;;;;22.15;19.80;;;;;;;;;;10150005;28;20467;-73
2024/01/23 06:37:32;;;;;;;16.63;14.93;;;;;;;;;;10149310;28;20375;-74
2024/01/23 06:42:24;;;;;;;23.73;17.77;;;;;;;;;;10150156;28;20444;-73
2024/01/23 06:47:17;;;;;;;29.77;19.70;;;;;;;;;;10151011;28;20056;-72
2024/01/23 06:52:09;;;;;;;25.17;18.83;;;;;;;;;;10145210;28;20517;-74
2024/01/23 06:57:01;;;;;;;23.88;21.30;;;;;;;;;;10160771;28;20391;-72
2024/01/23 07:01:52;;;;;;;21.98;19.33;;;;;;;;;;10143100;28;20052;-73
2024/01/23 07:06:44;;;;;;;23.40;18.65;;;;;;;;;;10144259;28;20044;-72
2024/01/23 07:11:40;;;;;;;24.17;19.35;;;;;;;;;;10145075;28;20098;-72
2024/01/23 07:16:32;;;;;;;22.17;19.77;;;;;;;;;;10151244;28;20112;-72
2024/01/23 07:21:24;;;;;;;28.40;23.58;;;;;;;;;;10151713;28;20084;-72
2024/01/23 07:26:16;;;;;;;22.80;18.67;;;;;;;;;;10152082;28;20050;-72
2024/01/23 07:31:11;;;;;;;18.20;15.30;;;;;;;;;;10158383;28;20044;-74
2024/01/23 07:36:03;;;;;;;115.18;70.55;;;;;;;;;;10147840;28;20056;-74
2024/01/23 07:40:55;;;;;;;22.52;19.90;;;;;;;;;;10143719;28;20057;-75
2024/01/23 07:45:47;;;;;;;29.80;22.63;;;;;;;;;;10149466;28;20147;-74
2024/01/23 07:50:39;;;;;;;26.50;23.33;;;;;;;;;;10143282;28;20332;-75
2024/01/23 07:55:31;;;;;;;25.88;20.77;;;;;;;;;;10144628;28;20091;-75
2024/01/23 08:00:23;;;;;;;33.00;24.15;;;;;;;;;;10141685;28;20071;-74
2024/01/23 08:05:15;;;;;;;30.70;23.35;;;;;;;;;;10138139;28;20032;-75
2024/01/23 08:10:09;;;;;;;26.70;21.42;;;;;;;;;;10146336;28;20040;-75
2024/01/23 08:15:01;;;;;;;26.75;22.33;;;;;;;;;;10137426;28;20060;-73
2024/01/23 08:19:53;;;;;;;25.20;21.27;;;;;;;;;;10142373;28;20147;-75
2024/01/23 08:24:45;;;;;;;27.25;21.10;;;;;;;;;;10141373;28;20080;-75
2024/01/23 08:29:37;;;;;;;23.15;20.25;;;;;;;;;;10142422;28;20098;-75
2024/01/23 08:34:30;;;;;;;27.42;17.30;;;;;;;;;;10148241;28;20493;-73
2024/01/23 08:39:22;;;;;;;21.35;18.02;;;;;;;;;;10140487;28;20114;-73
2024/01/23 08:44:15;;;;;;;23.15;16.67;;;;;;;;;;10141247;28;20059;-73
2024/01/23 08:49:07;;;;;;;21.30;18.42;;;;;;;;;;10149914;28;20063;-73
2024/01/23 08:54:01;;;;;;;19.38;16.45;;;;;;;;;;10141126;28;20068;-73
2024/01/23 08:58:53;;;;;;;15.82;12.93;;;;;;;;;;10142145;28;20858;-72
2024/01/23 09:03:46;;;;;;;17.02;11.40;;;;;;;;;;10148788;28;20711;-73
2024/01/23 09:08:41;;;;;;;13.25;10.48;;;;;;;;;;10145457;28;20122;-72
2024/01/23 09:13:33;;;;;;;24.15;20.17;;;;;;;;;;10141057;28;20139;-73
2024/01/23 09:18:29;;;;;;;24.48;20.17;;;;;;;;;;10127598;28;20040;-72
2024/01/23 09:23:21;;;;;;;29.15;19.50;;;;;;;;;;10139797;28;20436;-73
2024/01/23 09:28:16;;;;;;;23.38;17.45;;;;;;;;;;10139435;28;20044;-72
2024/01/23 09:33:08;;;;;;;18.20;16.17;;;;;;;;;;10140488;28;20044;-75
2024/01/23 09:38:00;;;;;;;23.80;18.60;;;;;;;;;;10137651;28;20059;-75
2024/01/23 09:42:55;;;;;;;26.38;16.63;;;;;;;;;;10137859;28;21026;-75
2024/01/23 09:47:48;;;;;;;21.73;17.45;;;;;;;;;;10140912;28;20052;-73
2024/01/23 09:52:45;;;;;;;26.90;21.23;;;;;;;;;;10123462;28;20048;-73
2024/01/23 09:57:41;;;;;;;24.58;21.83;;;;;;;;;;10139602;28;20083;-73
2024/01/23 10:02:35;;;;;;;24.42;20.88;;;;;;;;;;10141527;28;20156;-73
2024/01/23 10:07:27;;;;;;;27.17;22.92;;;;;;;;;;10145575;28;20086;-73
2024/01/23 10:12:19;;;;;;;25.63;22.85;;;;;;;;;;10144920;28;20047;-73
2024/01/23 10:17:13;;;;;;;32.58;22.92;;;;;;;;;;10145978;28;20135;-73
2024/01/23 10:22:05;;;;;;;36.70;23.67;;;;;;;;;;10145709;28;20044;-73
2024/01/23 10:26:57;;;;;;;27.83;22.90;;;;;;;;;;10145307;28;20040;-73
2024/01/23 10:31:49;;;;;;;32.53;23.48;;;;;;;;;;10143525;28;20164;-73
2024/01/23 10:36:42;;;;;;;30.40;25.27;;;;;;;;;;10140337;28;20047;-73
2024/01/23 10:41:34;;;;;;;31.15;24.02;;;;;;;;;;10122271;28;20052;-73
2024/01/23 10:46:26;;;;;;;28.05;22.08;;;;;;;;;;10126050;28;20098;-73
2024/01/23 10:51:19;;;;;;;27.38;22.05;;;;;;;;;;10136595;28;20368;-73
2024/01/23 10:56:14;;;;;;;25.13;22.23;;;;;;;;;;10152394;28;20372;-73
2024/01/23 11:01:07;;;;;;;24.63;22.15;;;;;;;;;;10152843;28;20059;-74
2024/01/23 11:06:04;;;;;;;33.90;20.52;;;;;;;;;;10155443;28;20037;-74
2024/01/23 11:11:16;;;;;;;19.85;17.60;;;;;;;;;;10153099;28;20125;-74
2024/01/23 11:16:13;;;;;;;19.17;14.90;;;;;;;;;;10143389;28;20046;-74
2024/01/23 11:21:05;;;;;;;16.90;14.95;;;;;;;;;;10153733;28;20055;-73
2024/01/23 11:25:58;;;;;;;15.85;14.18;;;;;;;;;;10173136;28;20036;-74
2024/01/23 11:31:12;;;;;;;19.05;17.13;;;;;;;;;;10151368;28;20140;-74
2024/01/23 11:36:12;;;;;;;19.92;15.75;;;;;;;;;;10134835;28;20044;-74
2024/01/23 11:41:12;;;;;;;22.83;18.13;;;;;;;;;;10151294;28;20048;-74
2024/01/23 11:46:04;;;;;;;19.80;16.77;;;;;;;;;;10155170;28;20047;-74
2024/01/23 11:50:56;;;;;;;23.17;18.08;;;;;;;;;;10150498;28;20037;-74
2024/01/23 11:55:48;;;;;;;19.65;17.55;;;;;;;;;;10134456;28;20040;-73
2024/01/23 12:00:40;;;;;;;21.40;19.00;;;;;;;;;;10150415;28;20048;-74
2024/01/23 12:05:32;;;;;;;27.63;20.90;;;;;;;;;;10150407;28;20079;-74
2024/01/23 12:10:24;;;;;;;22.65;17.80;;;;;;;;;;10149672;28;20459;-73
2024/01/23 12:15:16;;;;;;;22.38;19.38;;;;;;;;;;10131734;28;20056;-73
2024/01/23 12:20:11;;;;;;;25.23;16.90;;;;;;;;;;10154393;28;20093;-74
2024/01/23 12:25:06;;;;;;;26.85;18.83;;;;;;;;;;10151905;28;20052;-72
2024/01/23 12:29:59;;;;;;;20.92;17.52;;;;;;;;;;10135963;28;20045;-74
2024/01/23 12:34:51;;;;;;;22.40;18.15;;;;;;;;;;10148641;28;20091;-73
2024/01/23 12:39:43;;;;;;;23.73;19.23;;;;;;;;;;10147626;28;20066;-74
2024/01/23 12:44:36;;;;;;;25.92;18.77;;;;;;;;;;10148498;28;20041;-74
2024/01/23 12:49:28;;;;;;;24.17;19.38;;;;;;;;;;10154373;28;20328;-75
2024/01/23 12:54:21;;;;;;;27.00;21.55;;;;;;;;;;10147404;28;20087;-74
2024/01/23 12:59:13;;;;;;;21.58;16.48;;;;;;;;;;10151222;28;20055;-74
2024/01/23 13:04:05;;;;;;;29.95;20.17;;;;;;;;;;10147609;28;20048;-74
2024/01/23 13:08:57;;;;;;;24.52;19.23;;;;;;;;;;10147218;28;20431;-74
2024/01/23 13:13:49;;;;;;;20.00;17.92;;;;;;;;;;10146203;28;20044;-74
2024/01/23 13:18:41;;;;;;;22.27;18.35;;;;;;;;;;10154727;28;20044;-74
2024/01/23 13:23:34;;;;;;;20.30;17.27;;;;;;;;;;10142847;28;20036;-74
2024/01/23 13:28:26;;;;;;;22.13;18.50;;;;;;;;;;10145682;28;20083;-73
2024/01/23 13:33:24;;;;;;;27.50;17.38;;;;;;;;;;10103082;28;20477;-74
2024/01/23 13:38:17;;;;;;;23.58;17.73;;;;;;;;;;10094953;28;20041;-75
2024/01/23 13:43:09;;;;;;;25.23;17.45;;;;;;;;;;10093583;28;20064;-75
2024/01/23 13:48:03;;;;;;;32.17;22.15;;;;;;;;;;10094314;28;20103;-73
2024/01/23 13:52:55;;;;;;;22.85;16.65;;;;;;;;;;10095068;28;20049;-74
2024/01/23 13:57:47;;;;;;;20.13;17.98;;;;;;;;;;10091991;28;20127;-73
2024/01/23 14:02:40;;;;;;;25.23;18.13;;;;;;;;;;10092990;28;20472;-74
2024/01/23 14:07:34;;;;;;;21.55;19.25;;;;;;;;;;10090627;28;20091;-75
2024/01/23 14:12:26;;;;;;;19.05;17.00;;;;;;;;;;10093962;28;20447;-75
2024/01/23 14:17:18;;;;;;;28.00;19.88;;;;;;;;;;10093822;28;20120;-75
2024/01/23 14:22:13;;;;;;;21.08;17.23;;;;;;;;;;10093598;28;20128;-76
2024/01/23 14:27:05;;;;;;;21.42;18.15;;;;;;;;;;10093493;28;20042;-75
2024/01/23 14:31:57;;;;;;;20.17;17.13;;;;;;;;;;10091724;28;20392;-74
2024/01/23 14:36:49;;;;;;;23.83;18.13;;;;;;;;;;10087802;28;20138;-75
2024/01/23 14:41:42;;;;;;;27.90;21.23;;;;;;;;;;10083918;28;20123;-75
2024/01/23 14:46:35;;;;;;;27.27;19.83;;;;;;;;;;10066644;28;20059;-74
2024/01/23 14:51:27;;;;;;;25.90;20.48;;;;;;;;;;10064618;28;20053;-74
2024/01/23 14:56:19;;;;;;;26.60;19.83;;;;;;;;;;10063752;28;20077;-74
2024/01/23 15:01:11;;;;;;;27.60;19.05;;;;;;;;;;10066545;28;20042;-75
2024/01/23 15:06:04;;;;;;;25.65;18.50;;;;;;;;;;10064388;28;20046;-74
2024/01/23 15:10:57;;;;;;;23.00;19.67;;;;;;;;;;10065210;28;20121;-76
2024/01/23 15:15:49;;;;;;;45.47;35.45;;;;;;;;;;10062169;28;20053;-74
2024/01/23 15:20:41;;;;;;;28.50;25.20;;;;;;;;;;10062527;28;20738;-74
2024/01/23 15:25:34;;;;;;;27.55;21.13;;;;;;;;;;10063586;28;20427;-74
2024/01/23 15:30:29;;;;;;;27.40;21.13;;;;;;;;;;10066021;28;20103;-75
2024/01/23 15:35:22;;;;;;;20.80;18.60;;;;;;;;;;10060605;28;20083;-73
2024/01/23 15:40:14;;;;;;;20.73;17.98;;;;;;;;;;10060081;28;20045;-74
2024/01/23 15:45:06;;;;;;;22.48;16.73;;;;;;;;;;10060037;28;20427;-74
2024/01/23 15:49:59;;;;;;;62.83;46.13;;;;;;;;;;10060955;28;20099;-74
2024/01/23 15:54:51;;;;;;;66.60;52.70;;;;;;;;;;10062610;28;20437;-74
2024/01/23 15:59:43;;;;;;;97.47;63.30;;;;;;;;;;10064040;28;20041;-74
2024/01/23 16:04:35;;;;;;;62.35;44.83;;;;;;;;;;10063424;28;20045;-74
2024/01/23 16:09:26;;;;;;;34.33;24.90;;;;;;;;;;10062921;28;20042;-74
2024/01/23 16:14:19;;;;;;;47.08;34.58;;;;;;;;;;10060352;28;20426;-75
2024/01/23 16:19:12;;;;;;;55.20;38.20;;;;;;;;;;10061617;28;20049;-74
2024/01/23 16:24:04;;;;;;;172.25;126.70;;;;;;;;;;10060629;28;20051;-74
2024/01/23 16:28:57;;;;;;;63.92;51.78;;;;;;;;;;10056412;28;20049;-77
2024/01/23 16:33:48;;;;;;;48.83;40.40;;;;;;;;;;10056955;28;20046;-78
2024/01/23 16:38:40;;;;;;;49.63;36.90;;;;;;;;;;10057681;28;20048;-79
2024/01/23 16:43:32;;;;;;;37.78;29.33;;;;;;;;;;10064090;28;20207;-78
2024/01/23 16:48:24;;;;;;;68.88;50.28;;;;;;;;;;10062834;28;20128;-79
2024/01/23 16:53:16;;;;;;;64.07;35.90;;;;;;;;;;10056976;28;20060;-79
2024/01/23 16:58:08;;;;;;;32.50;28.67;;;;;;;;;;10055432;28;20110;-81
2024/01/23 17:03:00;;;;;;;30.80;26.20;;;;;;;;;;10058394;28;20469;-81
2024/01/23 17:07:52;;;;;;;30.15;24.48;;;;;;;;;;10060052;28;20132;-79
2024/01/23 17:12:44;;;;;;;32.75;27.00;;;;;;;;;;10059677;28;20042;-79
2024/01/23 17:17:37;;;;;;;29.38;23.52;;;;;;;;;;10065494;28;20373;-79
2024/01/23 17:22:31;;;;;;;38.42;23.23;;;;;;;;;;10061245;28;20065;-72
2024/01/23 17:27:24;;;;;;;35.78;25.38;;;;;;;;;;10060718;28;20115;-73
2024/01/23 17:32:15;;;;;;;33.70;25.33;;;;;;;;;;10065561;28;20053;-73
2024/01/23 17:37:07;;;;;;;41.67;26.38;;;;;;;;;;10059817;28;20077;-73
2024/01/23 17:41:59;;;;;;;41.67;35.22;;;;;;;;;;10070091;28;20444;-73
2024/01/23 17:46:51;;;;;;;52.58;44.65;;;;;;;;;;10061307;28;20094;-73
2024/01/23 17:51:43;;;;;;;56.42;45.42;;;;;;;;;;10059044;28;20049;-73
2024/01/23 17:56:39;;;;;;;57.15;44.03;;;;;;;;;;10064033;28;20038;-73
2024/01/23 18:01:31;;;;;;;40.67;35.65;;;;;;;;;;10060839;28;20041;-73
2024/01/23 18:06:24;;;;;;;65.05;47.33;;;;;;;;;;10055546;28;20049;-73
2024/01/23 18:11:16;;;;;;;59.40;46.67;;;;;;;;;;10053484;28;20041;-73
2024/01/23 18:16:08;;;;;;;53.33;41.63;;;;;;;;;;10043649;28;20045;-73
2024/01/23 18:21:00;;;;;;;61.00;45.60;;;;;;;;;;10046959;28;20357;-73
2024/01/23 18:25:52;;;;;;;62.42;44.08;;;;;;;;;;10044253;28;20144;-74
2024/01/23 18:30:44;;;;;;;85.32;56.42;;;;;;;;;;10043912;28;20381;-74
2024/01/23 18:35:36;;;;;;;185.27;102.32;;;;;;;;;;10050999;28;20080;-73
2024/01/23 18:40:28;;;;;;;88.68;58.25;;;;;;;;;;10072002;28;20561;-73
2024/01/23 18:45:20;;;;;;;97.35;64.35;;;;;;;;;;10054970;28;20140;-71
2024/01/23 18:50:13;;;;;;;293.60;151.73;;;;;;;;;;10068283;28;20051;-73
2024/01/23 18:55:06;;;;;;;155.57;95.07;;;;;;;;;;10069133;28;20136;-73
2024/01/23 18:59:58;;;;;;;78.35;55.75;;;;;;;;;;10067046;28;20052;-73
2024/01/23 19:04:50;;;;;;;59.28;39.90;;;;;;;;;;10066189;28;20045;-73
2024/01/23 19:09:42;;;;;;;73.97;49.90;;;;;;;;;;10066568;28;20133;-73
2024/01/23 19:14:34;;;;;;;92.60;56.85;;;;;;;;;;10065542;28;20084;-73
2024/01/23 19:19:27;;;;;;;55.97;38.28;;;;;;;;;;10066129;28;20484;-73
2024/01/23 19:24:19;;;;;;;45.78;34.25;;;;;;;;;;10065483;28;20045;-78
2024/01/23 19:29:12;;;;;;;41.80;34.38;;;;;;;;;;10053826;28;20077;-74
2024/01/23 19:34:04;;;;;;;45.22;36.30;;;;;;;;;;10041131;28;20058;-73
2024/01/23 19:39:08;;;;;;;85.75;52.65;;;;;;;;;;10052032;28;20063;-74
2024/01/23 19:44:00;;;;;;;83.05;53.42;;;;;;;;;;10062621;28;20045;-73
2024/01/23 19:48:52;;;;;;;54.38;42.13;;;;;;;;;;10060094;28;20045;-73
2024/01/23 19:53:44;;;;;;;44.17;35.00;;;;;;;;;;10064949;28;20380;-73
2024/01/23 19:58:36;;;;;;;45.45;35.67;;;;;;;;;;10065714;28;20048;-73
2024/01/23 20:03:29;;;;;;;45.22;36.75;;;;;;;;;;10066172;28;20160;-73
2024/01/23 20:08:21;;;;;;;41.70;32.55;;;;;;;;;;10052531;28;20081;-78
2024/01/23 20:13:13;;;;;;;45.90;32.33;;;;;;;;;;10065351;28;20060;-73
2024/01/23 20:18:05;;;;;;;40.13;30.08;;;;;;;;;;10050680;28;20128;-73
2024/01/23 20:22:58;;;;;;;40.72;31.50;;;;;;;;;;10058884;28;20072;-73
2024/01/23 20:27:50;;;;;;;41.33;32.08;;;;;;;;;;10071320;28;20491;-73
2024/01/23 20:32:42;;;;;;;37.50;30.15;;;;;;;;;;10064880;28;20107;-73
2024/01/23 20:37:34;;;;;;;36.05;30.52;;;;;;;;;;10053016;28;20449;-72
2024/01/23 20:42:26;;;;;;;37.20;30.17;;;;;;;;;;10058659;28;20045;-72
2024/01/23 20:47:18;;;;;;;39.60;31.15;;;;;;;;;;10053454;28;20042;-73
2024/01/23 20:52:10;;;;;;;36.90;31.23;;;;;;;;;;10050007;28;20476;-72
2024/01/23 20:57:03;;;;;;;36.15;32.17;;;;;;;;;;10063923;28;20476;-72
2024/01/23 21:02:00;;;;;;;38.88;31.38;;;;;;;;;;10060894;28;20068;-72
2024/01/23 21:06:52;;;;;;;31.48;27.95;;;;;;;;;;10037106;28;20038;-73
2024/01/23 21:11:46;;;;;;;34.80;28.65;;;;;;;;;;10059569;28;20144;-72
2024/01/23 21:16:44;;;;;;;33.00;27.38;;;;;;;;;;10056669;28;20369;-72
2024/01/23 21:21:36;;;;;;;31.25;26.35;;;;;;;;;;10063671;28;20041;-72
2024/01/23 21:26:28;;;;;;;33.63;29.23;;;;;;;;;;10062584;28;20068;-72
2024/01/23 21:31:20;;;;;;;35.67;29.90;;;;;;;;;;10060433;28;20118;-72
2024/01/23 21:36:12;;;;;;;36.25;29.65;;;;;;;;;;10052597;28;20098;-73
2024/01/23 21:41:05;;;;;;;36.85;28.48;;;;;;;;;;10052947;28;20057;-73
2024/01/23 21:45:57;;;;;;;36.70;29.70;;;;;;;;;;10062914;28;20463;-72
2024/01/23 21:50:49;;;;;;;39.45;33.22;;;;;;;;;;10063668;28;20381;-73
2024/01/23 21:55:41;;;;;;;38.25;33.70;;;;;;;;;;10070649;28;20321;-73
2024/01/23 22:00:33;;;;;;;42.30;34.65;;;;;;;;;;10068611;28;20046;-74
2024/01/23 22:05:26;;;;;;;50.42;35.42;;;;;;;;;;10058693;28;20053;-73
2024/01/23 22:10:19;;;;;;;42.45;35.47;;;;;;;;;;10070490;28;20033;-74
2024/01/23 22:15:11;;;;;;;43.60;35.42;;;;;;;;;;10070031;28;20065;-73
2024/01/23 22:20:04;;;;;;;39.65;33.58;;;;;;;;;;10070386;28;20049;-73
2024/01/23 22:24:56;;;;;;;37.15;33.03;;;;;;;;;;10069492;28;20045;-73
2024/01/23 22:29:48;;;;;;;34.42;29.90;;;;;;;;;;10069981;28;20077;-73
2024/01/23 22:34:40;;;;;;;35.60;28.98;;;;;;;;;;10059392;28;20049;-73
2024/01/23 22:39:32;;;;;;;34.60;27.70;;;;;;;;;;10070154;28;20088;-72
2024/01/23 22:44:25;;;;;;;34.30;27.48;;;;;;;;;;10069168;28;20518;-73
2024/01/23 22:49:17;;;;;;;34.30;27.60;;;;;;;;;;10068770;28;20473;-72
2024/01/23 22:54:10;;;;;;;34.08;28.05;;;;;;;;;;10068918;28;20103;-72
2024/01/23 22:59:03;;;;;;;31.88;26.50;;;;;;;;;;10068290;28;20045;-73
2024/01/23 23:03:55;;;;;;;33.40;27.92;;;;;;;;;;10070956;28;20077;-72
2024/01/23 23:08:47;;;;;;;32.40;26.33;;;;;;;;;;10064773;28;20064;-72
2024/01/23 23:13:39;;;;;;;36.72;25.50;;;;;;;;;;10067598;28;20045;-72
2024/01/23 23:18:31;;;;;;;33.95;26.17;;;;;;;;;;10068773;28;20076;-72
2024/01/23 23:23:24;;;;;;;29.83;24.88;;;;;;;;;;10068142;28;20052;-72
2024/01/23 23:28:16;;;;;;;34.22;26.45;;;;;;;;;;10059555;28;20042;-74
2024/01/23 23:33:08;;;;;;;28.25;25.25;;;;;;;;;;10064164;28;20057;-73
2024/01/23 23:38:00;;;;;;;30.60;26.70;;;;;;;;;;10067505;28;20390;-72
2024/01/23 23:42:52;;;;;;;32.50;27.70;;;;;;;;;;10067792;28;20046;-72
2024/01/23 23:47:44;;;;;;;30.52;24.63;;;;;;;;;;10067964;28;20083;-72
2024/01/23 23:52:36;;;;;;;31.23;27.77;;;;;;;;;;10067094;28;20068;-72
2024/01/23 23:57:28;;;;;;;34.97;27.70;;;;;;;;;;10053614;28;20042;-72
